createdAt,value
2022-12-24T00:01:32.269Z,13.38
2022-12-24T00:04:00.211Z,23.00
2022-12-24T00:06:28.075Z,24.65
2022-12-24T00:08:55.949Z,17.52
2022-12-24T00:11:23.827Z,17.05
2022-12-24T00:13:51.796Z,17.77
2022-12-24T00:16:19.821Z,14.90
2022-12-24T00:18:47.917Z,21.77
2022-12-24T00:21:16.815Z,15.88
2022-12-24T00:23:45.205Z,16.02
2022-12-24T00:26:13.801Z,18.77
2022-12-24T00:28:41.856Z,14.52
2022-12-24T00:31:18.009Z,16.33
2022-12-24T00:33:48.851Z,19.17
2022-12-24T00:36:17.548Z,14.50
2022-12-24T00:38:45.767Z,15.32
2022-12-24T00:41:29.339Z,21.77
2022-12-24T00:44:06.859Z,20.25
2022-12-24T00:46:35.818Z,23.00
2022-12-24T00:49:05.151Z,23.17
2022-12-24T00:51:33.827Z,11.73
2022-12-24T00:54:07.425Z,22.25
2022-12-24T00:56:35.720Z,23.95
2022-12-24T00:59:03.609Z,24.85
2022-12-24T01:01:31.657Z,19.90
2022-12-24T01:04:18.170Z,23.15
2022-12-24T01:06:46.111Z,27.35
2022-12-24T01:09:14.188Z,16.92
2022-12-24T01:11:42.143Z,18.65
2022-12-24T01:14:20.759Z,21.40
2022-12-24T01:16:48.832Z,26.83
2022-12-24T01:19:16.707Z,22.30
2022-12-24T01:21:48.827Z,23.08
2022-12-24T01:24:17.233Z,15.40
2022-12-24T01:26:45.600Z,24.52
2022-12-24T01:29:13.523Z,21.77
2022-12-24T01:31:41.677Z,19.95
2022-12-24T01:34:12.574Z,23.02
2022-12-24T01:36:41.940Z,14.40
2022-12-24T01:39:09.771Z,15.38
2022-12-24T01:41:56.143Z,21.23
2022-12-24T01:44:36.885Z,21.17
2022-12-24T01:47:15.477Z,30.42
2022-12-24T01:49:48.626Z,23.98
2022-12-24T01:52:22.898Z,25.40
2022-12-24T01:55:04.545Z,18.23
2022-12-24T01:57:38.071Z,17.30
2022-12-24T02:00:13.122Z,23.02
2022-12-24T02:02:43.518Z,23.77
2022-12-24T02:05:38.863Z,21.92
2022-12-24T02:08:07.981Z,21.92
2022-12-24T02:10:35.938Z,21.35
2022-12-24T02:13:04.503Z,26.10
2022-12-24T02:15:44.313Z,22.52
2022-12-24T02:19:06.180Z,23.45
2022-12-24T02:21:43.295Z,29.88
2022-12-24T02:24:21.783Z,23.58
2022-12-24T02:27:19.251Z,32.28
2022-12-24T02:30:03.563Z,26.92
2022-12-24T02:32:34.368Z,21.47
2022-12-24T02:35:27.257Z,20.52
2022-12-24T02:38:05.325Z,18.42
2022-12-24T02:40:41.074Z,26.52
2022-12-24T02:43:16.860Z,26.05
2022-12-24T02:45:49.558Z,29.27
2022-12-24T02:48:23.540Z,35.72
2022-12-24T02:51:22.163Z,22.25
2022-12-24T02:53:50.112Z,22.55
2022-12-24T02:56:48.120Z,19.55
2022-12-24T02:59:18.722Z,27.38
2022-12-24T03:02:19.952Z,26.38
2022-12-24T03:05:08.870Z,23.10
2022-12-24T03:07:48.486Z,24.58
2022-12-24T03:10:31.315Z,34.53
2022-12-24T03:13:22.773Z,30.13
2022-12-24T03:15:51.985Z,25.88
2022-12-24T03:18:23.503Z,27.48
2022-12-24T03:21:13.781Z,24.98
2022-12-24T03:23:41.822Z,35.20
2022-12-24T03:26:12.235Z,22.08
2022-12-24T03:28:41.584Z,19.15
2022-12-24T03:31:10.962Z,27.23
2022-12-24T03:33:39.726Z,25.40
2022-12-24T03:36:08.538Z,30.88
2022-12-24T03:38:36.404Z,28.10
2022-12-24T03:41:04.552Z,21.38
2022-12-24T03:43:32.603Z,24.83
2022-12-24T03:46:05.463Z,26.08
2022-12-24T03:48:35.308Z,20.25
2022-12-24T03:51:03.978Z,24.83
2022-12-24T03:53:32.287Z,23.95
2022-12-24T03:56:00.156Z,20.25
2022-12-24T03:58:27.896Z,22.73
2022-12-24T04:00:55.817Z,31.08
2022-12-24T04:03:23.966Z,27.33
2022-12-24T04:06:06.143Z,26.83
2022-12-24T04:08:35.060Z,27.85
2022-12-24T04:11:09.689Z,25.13
2022-12-24T04:13:38.438Z,22.17
2022-12-24T04:16:09.534Z,24.85
2022-12-24T04:18:38.496Z,27.02
2022-12-24T04:21:07.861Z,24.02
2022-12-24T04:23:37.366Z,24.85
2022-12-24T04:26:07.730Z,27.98
2022-12-24T04:28:36.487Z,28.13
2022-12-24T04:31:07.422Z,21.60
2022-12-24T04:33:36.184Z,32.38
2022-12-24T04:36:06.619Z,19.13
2022-12-24T04:38:35.393Z,26.73
2022-12-24T04:41:05.752Z,22.73
2022-12-24T04:43:34.336Z,35.00
2022-12-24T04:46:10.557Z,39.85
2022-12-24T04:48:38.781Z,35.13
2022-12-24T04:51:07.492Z,32.55
2022-12-24T04:53:35.829Z,39.13
2022-12-24T04:56:07.064Z,29.70
2022-12-24T04:58:35.391Z,37.72
2022-12-24T05:01:07.830Z,43.97
2022-12-24T05:03:35.884Z,18.75
2022-12-24T05:06:06.121Z,28.38
2022-12-24T05:08:34.402Z,36.33
2022-12-24T05:11:03.350Z,33.50
2022-12-24T05:13:40.440Z,19.88
2022-12-24T05:16:13.617Z,27.63
2022-12-24T05:18:41.615Z,25.05
2022-12-24T05:21:11.384Z,23.15
2022-12-24T05:23:57.857Z,42.85
2022-12-24T05:26:49.349Z,37.58
2022-12-24T05:29:17.602Z,29.58
2022-12-24T05:31:45.906Z,23.30
2022-12-24T05:34:15.184Z,30.92
2022-12-24T05:36:44.214Z,33.75
2022-12-24T05:39:19.062Z,23.27
2022-12-24T05:41:47.289Z,28.73
2022-12-24T05:44:16.194Z,23.65
2022-12-24T05:46:44.725Z,29.52
2022-12-24T05:49:12.833Z,27.65
2022-12-24T05:51:41.134Z,30.45
2022-12-24T05:54:09.028Z,31.80
2022-12-24T05:56:36.838Z,37.45
2022-12-24T05:59:04.946Z,33.05
2022-12-24T06:01:32.809Z,33.78
2022-12-24T06:04:00.883Z,26.08
2022-12-24T06:06:28.990Z,30.77
2022-12-24T06:08:57.178Z,28.67
2022-12-24T06:11:27.540Z,30.02
2022-12-24T06:13:55.980Z,30.02
2022-12-24T06:16:25.320Z,30.25
2022-12-24T06:18:53.544Z,34.65
2022-12-24T06:21:21.472Z,25.30
2022-12-24T06:23:49.250Z,35.85
2022-12-24T06:26:19.458Z,29.20
2022-12-24T06:28:48.316Z,26.10
2022-12-24T06:31:19.064Z,32.05
2022-12-24T06:33:47.332Z,23.95
2022-12-24T06:36:18.568Z,26.48
2022-12-24T06:38:47.616Z,33.83
2022-12-24T06:41:16.889Z,24.13
2022-12-24T06:43:50.366Z,26.25
2022-12-24T06:46:19.175Z,24.55
2022-12-24T06:48:47.873Z,18.40
2022-12-24T06:51:19.398Z,33.05
2022-12-24T06:53:48.366Z,29.38
2022-12-24T06:56:16.277Z,25.88
2022-12-24T06:58:44.347Z,25.63
2022-12-24T07:01:14.835Z,35.13
2022-12-24T07:03:43.532Z,23.80
2022-12-24T07:06:26.997Z,28.58
2022-12-24T07:08:55.166Z,31.35
2022-12-24T07:11:24.857Z,32.97
2022-12-24T07:13:52.698Z,36.15
2022-12-24T07:16:20.764Z,37.35
2022-12-24T07:18:48.844Z,38.22
2022-12-24T07:21:16.737Z,29.70
2022-12-24T07:23:44.570Z,26.45
2022-12-24T07:26:12.514Z,33.28
2022-12-24T07:28:40.489Z,31.75
2022-12-24T07:31:08.537Z,29.48
2022-12-24T07:33:36.369Z,33.78
2022-12-24T07:36:17.761Z,36.53
2022-12-24T07:38:45.628Z,32.72
2022-12-24T07:41:13.734Z,34.40
2022-12-24T07:43:42.165Z,33.10
2022-12-24T07:46:10.313Z,27.60
2022-12-24T07:48:38.467Z,35.92
2022-12-24T07:51:06.534Z,29.02
2022-12-24T07:53:34.579Z,38.13
2022-12-24T07:56:06.160Z,37.97
2022-12-24T07:58:36.882Z,28.50
2022-12-24T08:01:04.752Z,36.88
2022-12-24T08:03:32.719Z,25.42
2022-12-24T08:06:00.804Z,32.20
2022-12-24T08:08:28.804Z,29.45
2022-12-24T08:11:02.908Z,40.60
2022-12-24T08:13:31.252Z,30.65
2022-12-24T08:16:01.529Z,24.60
2022-12-24T08:18:29.492Z,38.47
2022-12-24T08:20:57.320Z,29.67
2022-12-24T08:23:25.546Z,32.05
2022-12-24T08:25:53.431Z,32.33
2022-12-24T08:28:21.624Z,37.65
2022-12-24T08:30:50.435Z,27.23
2022-12-24T08:33:18.906Z,27.63
2022-12-24T08:35:50.912Z,24.70
2022-12-24T08:38:18.792Z,29.83
2022-12-24T08:40:48.933Z,21.15
2022-12-24T08:43:20.628Z,22.42
2022-12-24T08:45:50.008Z,27.42
2022-12-24T08:48:18.658Z,30.42
2022-12-24T08:50:46.765Z,33.47
2022-12-24T08:53:14.873Z,24.23
2022-12-24T08:55:42.773Z,30.20
2022-12-24T08:58:10.761Z,24.77
2022-12-24T09:00:38.967Z,24.30
2022-12-24T09:03:07.022Z,29.73
2022-12-24T09:05:39.473Z,29.08
2022-12-24T09:08:07.364Z,33.25
2022-12-24T09:10:35.323Z,36.10
2022-12-24T09:13:03.193Z,31.55
2022-12-24T09:15:31.169Z,18.50
2022-12-24T09:17:59.121Z,29.00
2022-12-24T09:20:28.019Z,34.63
2022-12-24T09:22:56.165Z,21.25
2022-12-24T09:25:24.369Z,25.20
2022-12-24T09:27:52.951Z,23.80
2022-12-24T09:30:21.214Z,36.33
2022-12-24T09:32:50.881Z,23.85
2022-12-24T09:35:18.834Z,35.75
2022-12-24T09:37:46.680Z,34.03
2022-12-24T09:40:29.296Z,31.63
2022-12-24T09:42:57.268Z,22.95
2022-12-24T09:45:36.782Z,35.10
2022-12-24T09:48:17.136Z,22.85
2022-12-24T09:50:56.646Z,30.85
2022-12-24T09:53:27.740Z,27.90
2022-12-24T09:55:59.196Z,30.85
2022-12-24T09:58:40.645Z,34.72
2022-12-24T10:01:15.869Z,25.05
2022-12-24T10:03:44.839Z,25.65
2022-12-24T10:06:29.086Z,26.10
2022-12-24T10:09:16.351Z,29.13
2022-12-24T10:12:17.876Z,24.10
2022-12-24T10:15:23.049Z,22.27
2022-12-24T10:18:18.768Z,29.65
2022-12-24T10:23:55.225Z,19.88
2022-12-24T10:26:30.447Z,25.88
2022-12-24T10:29:12.645Z,30.98
2022-12-24T10:32:09.393Z,20.10
2022-12-24T10:35:19.786Z,26.10
2022-12-24T10:37:49.690Z,22.75
2022-12-24T10:40:30.667Z,25.83
2022-12-24T10:42:58.735Z,26.58
2022-12-24T10:45:35.633Z,25.35
2022-12-24T10:48:09.880Z,30.15
2022-12-24T10:50:51.831Z,26.30
2022-12-24T10:53:31.454Z,26.58
2022-12-24T10:56:05.979Z,24.33
2022-12-24T10:58:35.622Z,32.67
2022-12-24T11:01:04.289Z,24.42
2022-12-24T11:03:37.041Z,17.52
2022-12-24T11:06:21.071Z,22.08
2022-12-24T11:08:49.110Z,26.83
2022-12-24T11:11:20.580Z,26.15
2022-12-24T11:13:51.410Z,19.88
2022-12-24T11:16:30.649Z,29.60
2022-12-24T11:19:02.171Z,23.23
2022-12-24T11:21:35.064Z,18.98
2022-12-24T11:24:27.984Z,24.85
2022-12-24T11:27:17.862Z,22.38
2022-12-24T11:29:45.761Z,24.23
2022-12-24T11:32:20.291Z,20.00
2022-12-24T11:34:48.912Z,26.23
2022-12-24T11:37:23.787Z,29.58
2022-12-24T11:42:35.239Z,23.50
2022-12-24T11:45:08.659Z,15.98
2022-12-24T11:47:40.721Z,21.05
2022-12-24T11:50:23.502Z,15.63
2022-12-24T11:53:22.957Z,18.48
2022-12-24T11:55:57.710Z,22.67
2022-12-24T12:01:16.033Z,18.20
2022-12-24T12:03:51.584Z,20.50
2022-12-24T12:06:40.433Z,25.77
2022-12-24T12:09:17.563Z,21.10
2022-12-24T12:11:51.171Z,19.35
2022-12-24T12:14:38.396Z,23.75
2022-12-24T12:17:37.109Z,19.83
2022-12-24T12:20:16.799Z,23.55
2022-12-24T12:23:03.266Z,22.25
2022-12-24T12:25:51.382Z,21.77
2022-12-24T12:28:26.819Z,23.88
2022-12-24T12:31:13.813Z,17.27
2022-12-24T12:33:48.793Z,20.50
2022-12-24T12:36:21.724Z,23.63
2022-12-24T12:38:51.247Z,21.33
2022-12-24T12:41:25.253Z,16.00
2022-12-24T12:44:08.162Z,20.70
2022-12-24T12:46:51.351Z,18.17
2022-12-24T12:49:49.480Z,19.92
2022-12-24T12:52:37.002Z,16.15
2022-12-24T12:55:23.939Z,17.48
2022-12-24T12:57:58.230Z,16.35
2022-12-24T13:00:28.170Z,16.08
2022-12-24T13:03:28.774Z,16.75
2022-12-24T13:06:05.704Z,17.98
2022-12-24T13:08:39.709Z,21.95
2022-12-24T13:11:36.989Z,15.00
2022-12-24T13:14:22.252Z,17.95
2022-12-24T13:19:40.218Z,12.20
2022-12-24T13:22:17.681Z,12.82
2022-12-24T13:24:56.927Z,16.77
2022-12-24T13:27:28.242Z,19.23
2022-12-24T13:30:02.178Z,13.23
2022-12-24T13:32:37.239Z,17.92
2022-12-24T13:35:36.983Z,15.57
2022-12-24T13:38:27.680Z,15.88
2022-12-24T13:40:56.587Z,15.85
2022-12-24T13:43:25.006Z,13.88
2022-12-24T13:45:53.540Z,8.27
2022-12-24T13:48:33.740Z,13.70
2022-12-24T13:51:20.390Z,18.40
2022-12-24T13:53:49.949Z,13.43
2022-12-24T13:56:18.299Z,13.55
2022-12-24T13:58:55.673Z,12.10
2022-12-24T14:01:36.189Z,12.27
2022-12-24T14:04:09.363Z,13.40
2022-12-24T14:06:49.184Z,17.60
2022-12-24T14:09:25.123Z,11.82
2022-12-24T14:12:28.630Z,12.98
2022-12-24T14:14:56.655Z,36.10
2022-12-24T14:17:26.441Z,23.67
2022-12-24T14:19:56.361Z,13.35
2022-12-24T14:22:34.151Z,16.55
2022-12-24T14:25:06.919Z,14.25
2022-12-24T14:27:47.006Z,14.82
2022-12-24T14:30:26.684Z,19.33
2022-12-24T14:32:55.233Z,25.08
2022-12-24T14:35:39.484Z,15.65
2022-12-24T14:38:18.741Z,18.63
2022-12-24T14:41:25.988Z,18.33
2022-12-24T14:44:10.447Z,20.33
2022-12-24T14:46:48.378Z,17.73
2022-12-24T14:49:34.126Z,21.23
2022-12-24T14:52:38.027Z,15.75
2022-12-24T14:55:21.891Z,13.95
2022-12-24T14:57:50.060Z,17.75
2022-12-24T15:00:20.840Z,15.30
2022-12-24T15:02:53.671Z,20.75
2022-12-24T15:05:28.915Z,16.70
2022-12-24T15:08:08.714Z,20.50
2022-12-24T15:10:46.837Z,21.15
2022-12-24T15:13:20.874Z,15.65
2022-12-24T15:15:52.873Z,19.50
2022-12-24T15:18:29.696Z,22.83
2022-12-24T15:21:04.419Z,16.65
2022-12-24T15:23:38.855Z,24.05
2022-12-24T15:26:38.954Z,22.38
2022-12-24T15:29:26.395Z,16.90
2022-12-24T15:31:59.762Z,20.40
2022-12-24T15:34:40.911Z,24.95
2022-12-24T15:37:21.794Z,16.10
2022-12-24T15:39:58.700Z,18.08
2022-12-24T15:42:29.619Z,26.73
2022-12-24T15:45:12.409Z,27.58
2022-12-24T15:47:48.656Z,21.27
2022-12-24T15:50:31.193Z,18.40
2022-12-24T15:53:20.161Z,21.33
2022-12-24T15:56:11.962Z,26.27
2022-12-24T15:58:45.453Z,18.25
2022-12-24T16:01:16.230Z,20.95
2022-12-24T16:03:53.287Z,25.35
2022-12-24T16:06:22.767Z,27.73
2022-12-24T16:08:51.912Z,24.65
2022-12-24T16:11:23.908Z,26.75
2022-12-24T16:13:59.534Z,24.05
2022-12-24T16:16:50.663Z,25.05
2022-12-24T16:19:31.743Z,18.60
2022-12-24T16:22:22.644Z,25.67
2022-12-24T16:24:52.559Z,18.05
2022-12-24T16:27:20.511Z,24.05
2022-12-24T16:29:48.305Z,28.10
2022-12-24T16:32:30.332Z,28.77
2022-12-24T16:34:58.986Z,36.28
2022-12-24T16:37:26.957Z,27.10
2022-12-24T16:39:54.909Z,25.15
2022-12-24T16:42:41.481Z,27.08
2022-12-24T16:45:10.516Z,29.75
2022-12-24T16:47:42.814Z,27.48
2022-12-24T16:50:16.541Z,35.20
2022-12-24T16:52:44.695Z,34.75
2022-12-24T16:55:15.753Z,33.25
2022-12-24T16:57:44.241Z,29.70
2022-12-24T17:00:21.182Z,23.88
2022-12-24T17:02:50.352Z,36.72
2022-12-24T17:05:18.882Z,32.67
2022-12-24T17:07:46.736Z,34.50
2022-12-24T17:10:15.019Z,26.40
2022-12-24T17:12:43.695Z,35.97
2022-12-24T17:15:11.683Z,38.75
2022-12-24T17:17:39.594Z,38.30
2022-12-24T17:20:08.374Z,38.60
2022-12-24T17:22:37.512Z,39.67
2022-12-24T17:25:06.677Z,41.03
2022-12-24T17:27:34.699Z,32.88
2022-12-24T17:30:02.614Z,29.90
2022-12-24T17:32:30.644Z,34.53
2022-12-24T17:35:00.053Z,30.25
2022-12-24T17:37:28.107Z,30.88
2022-12-24T17:39:56.112Z,35.50
2022-12-24T17:42:23.959Z,34.67
2022-12-24T17:44:51.963Z,42.22
2022-12-24T17:47:19.989Z,43.22
2022-12-24T17:49:48.242Z,38.10
2022-12-24T17:52:16.204Z,36.70
2022-12-24T17:54:44.296Z,32.42
2022-12-24T17:57:12.239Z,30.23
2022-12-24T17:59:40.287Z,38.75
2022-12-24T18:02:11.890Z,27.73
2022-12-24T18:04:40.036Z,36.63
2022-12-24T18:07:08.147Z,33.35
2022-12-24T18:09:35.990Z,35.55
2022-12-24T18:12:04.076Z,52.10
2022-12-24T18:14:31.913Z,43.35
2022-12-24T18:16:59.819Z,39.58
2022-12-24T18:19:27.850Z,33.28
2022-12-24T18:21:56.323Z,39.65
2022-12-24T18:24:24.292Z,33.78
2022-12-24T18:26:52.916Z,48.40
2022-12-24T18:29:20.890Z,41.50
2022-12-24T18:31:48.812Z,36.53
2022-12-24T18:34:16.836Z,44.60
2022-12-24T18:36:48.291Z,43.97
2022-12-24T18:39:19.287Z,42.38
2022-12-24T18:41:47.613Z,38.05
2022-12-24T18:44:19.492Z,43.88
2022-12-24T18:46:52.526Z,44.97
2022-12-24T18:49:20.570Z,47.08
2022-12-24T18:51:48.456Z,89.18
2022-12-24T18:54:16.306Z,54.58
2022-12-24T18:56:44.171Z,50.35
2022-12-24T18:59:12.142Z,51.15
2022-12-24T19:01:40.145Z,45.35
2022-12-24T19:04:08.296Z,39.58
2022-12-24T19:06:36.688Z,37.78
2022-12-24T19:09:04.859Z,42.35
2022-12-24T19:11:34.402Z,48.50
2022-12-24T19:14:04.948Z,44.20
2022-12-24T19:16:37.201Z,42.88
2022-12-24T19:19:07.741Z,41.63
2022-12-24T19:21:35.975Z,38.30
2022-12-24T19:24:04.329Z,37.15
2022-12-24T19:26:32.193Z,38.92
2022-12-24T19:29:00.098Z,40.22
2022-12-24T19:31:28.217Z,39.17
2022-12-24T19:33:56.996Z,34.63
2022-12-24T19:36:28.707Z,35.08
2022-12-24T19:38:58.118Z,47.97
2022-12-24T19:41:28.708Z,45.17
2022-12-24T19:43:59.606Z,38.58
2022-12-24T19:46:29.858Z,36.67
2022-12-24T19:49:00.239Z,43.15
2022-12-24T19:51:29.437Z,43.60
2022-12-24T19:53:59.629Z,36.75
2022-12-24T19:56:30.057Z,38.25
2022-12-24T19:58:59.079Z,32.80
2022-12-24T20:01:29.487Z,51.03
2022-12-24T20:03:57.992Z,39.28
2022-12-24T20:06:29.197Z,32.30
2022-12-24T20:09:06.583Z,49.90
2022-12-24T20:11:35.666Z,44.75
2022-12-24T20:14:05.474Z,53.53
2022-12-24T20:16:34.520Z,42.38
2022-12-24T20:19:05.643Z,44.55
2022-12-24T20:21:34.311Z,45.40
2022-12-24T20:24:02.313Z,36.25
2022-12-24T20:26:30.988Z,56.85
2022-12-24T20:28:58.945Z,61.88
2022-12-24T20:31:29.716Z,67.35
2022-12-24T20:33:59.150Z,63.72
2022-12-24T20:36:28.550Z,87.35
2022-12-24T20:38:57.403Z,83.05
2022-12-24T20:41:27.293Z,75.82
2022-12-24T20:43:57.018Z,53.70
2022-12-24T20:46:25.007Z,53.10
2022-12-24T20:48:53.134Z,49.03
2022-12-24T20:51:25.275Z,44.67
2022-12-24T20:53:59.447Z,57.10
2022-12-24T20:56:27.862Z,51.58
2022-12-24T20:58:55.872Z,64.85
2022-12-24T21:01:26.048Z,55.50
2022-12-24T21:03:55.718Z,52.92
2022-12-24T21:06:24.876Z,51.83
2022-12-24T21:08:54.012Z,43.58
2022-12-24T21:11:57.710Z,45.58
2022-12-24T21:14:27.562Z,54.03
2022-12-24T21:16:56.137Z,53.50
2022-12-24T21:19:25.504Z,45.00
2022-12-24T21:21:55.103Z,45.88
2022-12-24T21:24:23.035Z,46.25
2022-12-24T21:26:51.060Z,42.38
2022-12-24T21:29:18.964Z,47.42
2022-12-24T21:31:47.531Z,49.58
2022-12-24T21:34:15.467Z,47.47
2022-12-24T21:36:45.861Z,49.08
2022-12-24T21:39:14.180Z,39.95
2022-12-24T21:41:42.009Z,43.95
2022-12-24T21:44:09.854Z,52.65
2022-12-24T21:46:37.833Z,49.92
2022-12-24T21:49:24.334Z,40.13
2022-12-24T21:51:52.212Z,44.63
2022-12-24T21:54:32.093Z,42.78
2022-12-24T21:57:23.824Z,45.72
2022-12-24T21:59:53.582Z,43.47
2022-12-24T22:02:26.668Z,35.17
2022-12-24T22:04:54.849Z,52.47
2022-12-24T22:07:46.555Z,44.78
2022-12-24T22:10:33.793Z,43.80
2022-12-24T22:13:07.304Z,42.03
2022-12-24T22:15:36.917Z,43.40
2022-12-24T22:18:04.911Z,48.67
2022-12-24T22:20:34.161Z,46.17
2022-12-24T22:23:02.041Z,50.80
2022-12-24T22:25:31.695Z,44.47
2022-12-24T22:27:59.836Z,44.40
2022-12-24T22:30:28.443Z,48.70
2022-12-24T22:32:57.032Z,55.08
2022-12-24T22:35:25.158Z,46.90
2022-12-24T22:37:56.056Z,38.17
2022-12-24T22:40:28.163Z,51.10
2022-12-24T22:42:56.264Z,37.17
2022-12-24T22:45:24.188Z,35.72
2022-12-24T22:47:52.126Z,39.28
2022-12-24T22:50:20.172Z,53.45
2022-12-24T22:52:48.141Z,48.13
2022-12-24T22:55:16.168Z,40.70
2022-12-24T22:57:44.203Z,38.83
2022-12-24T23:00:33.569Z,50.15
2022-12-24T23:03:01.847Z,38.85
2022-12-24T23:05:30.305Z,41.63
2022-12-24T23:07:58.753Z,37.47
2022-12-24T23:10:26.779Z,42.63
2022-12-24T23:13:15.344Z,46.50
2022-12-24T23:15:43.490Z,47.47
2022-12-24T23:18:11.944Z,44.22
2022-12-24T23:20:42.998Z,45.53
2022-12-24T23:23:11.013Z,43.63
2022-12-24T23:25:38.941Z,47.03
2022-12-24T23:28:06.799Z,38.15
2022-12-24T23:30:34.786Z,43.42
2022-12-24T23:33:02.678Z,40.92
2022-12-24T23:35:30.537Z,46.40
2022-12-24T23:37:58.393Z,44.00
2022-12-24T23:40:26.395Z,44.03
2022-12-24T23:42:54.275Z,53.80
2022-12-24T23:45:22.238Z,45.03
2022-12-24T23:47:50.130Z,42.00
2022-12-24T23:50:18.119Z,45.47
2022-12-24T23:52:45.893Z,43.38
2022-12-24T23:55:13.694Z,37.92
2022-12-24T23:57:41.627Z,47.22
